Historyczne dane pomiarowe

Dodano dane terminowe – wersja testowa.

Dane z okresu 1951-2019

Wersja bazy: 1.34 [2019-03-16, lista zmian], aktualizacja planowana na 2019-04-15

Dane meteo z obszaru Polski uzyskane na podstawie danych udostępnionych przez Instytut Meteorologii i Gospodarki Wodnej – Państwowy Instytut Badawczy.

 

Wybierz Datę:    

       

TemperaturaWilgotnośćWiatrCiśnienieOpadyŚniegCzas trwania zjawisk
 Stacja t tx tn tng RH VA  wxwx mslp ppp RRR   cm mm wxwxwxwxwxwxwx
1979-03-18 -4.8 -2.3 -5.7- 80.3- 8.0 3.7---- 0.0-- 10---------
1979-03-19 -5.5 -2.7 -8.7- 73.0- 6.7 2.3---- 0.0-- 9---------
1979-03-20 -5.5 1.5-11.8- 80.0- 0.3 3.0---- 0.0-- 7---------
1979-03-21 -0.9 1.7 -3.8- 94.0- 8.0 2.3---- 3.3-- 7---------
1979-03-22 2.0 4.5 -0.9- 76.8- 1.0 3.0---- 0.0-- 6---------
1979-03-23 1.8 7.0 -0.9- 71.8- 2.7 3.7---- 0.4-- 5---------
1979-03-24 1.1 1.7 -1.1- 86.8- 8.0 6.3---- 1.0-- 4---------
1979-03-25 1.8 6.0 -2.9- 72.5- 2.7 2.7---- 0.3-- 3---------
1979-03-26 3.8 5.0 2.0- 82.0- 8.0 2.7---- 4.0-- 2---------
1979-03-27 5.4 8.2 3.4- 75.8- 4.3 3.0---- 0.0------------
1979-03-28 4.1 7.6 3.0- 86.3- 6.7 3.0---- 0.1------------
1979-03-29 2.9 4.1 2.0- 95.8- 8.0 3.0---- 1.2------------
1979-03-30 3.1 6.0 1.6- 91.5- 6.0 3.0---- 3.7------------
1979-03-31 1.4 4.5 0.1- 94.8- 8.0 3.7---- 8.6------------
1979-04-01 0.3 0.5 -0.1- 95.3- 8.0 3.0---- 4.8-- 6---------
1979-04-02 2.0 4.5 -0.1- 91.8- 8.0 3.0---- 0.4-- 4---------
1979-04-03 5.9 12.0 1.8- 79.3- 4.7 3.7---- 0.0------------
1979-04-04 7.7 12.2 4.8- 67.5- 5.0 3.0---- 0.0------------
1979-04-05 3.7 7.4 1.8- 83.3- 7.7 3.7---- 0.0------------
1979-04-06 4.6 9.2 1.5- 79.5- 5.7 3.0---- 0.0------------
1979-04-07 3.1 7.0 -0.3- 74.8- 1.7 4.3---- 0.0------------
1979-04-08 3.3 8.0 -0.5- 69.3- 0.0 4.3---- 0.0------------
1979-04-09 3.9 10.4 -2.7- 70.8- 0.3 3.0---- 0.0------------
1979-04-10 5.7 12.4 -1.5- 55.0- 0.3 3.0---- 0.0------------
1979-04-11 7.2 14.0 -1.9- 51.3- 0.3 3.0---- 0.0------------
1979-04-12 9.4 16.3 2.1- 52.5- 0.0 3.0---- 0.0------------
1979-04-13 9.5 16.9 3.9- 65.3- 2.7 3.0---- 0.0------------
1979-04-14 7.1 14.0 4.0- 80.5- 3.0 3.7---- 0.0------------
1979-04-15 3.6 7.0 -0.3- 76.0- 4.7 3.0---- 0.0------------
1979-04-16 -0.1 5.5 -8.0- 64.0- 1.7 3.0---- 0.0------------
220.3 ms

 

Źródłem pochodzenia danych jest Instytut Meteorologii i Gospodarki Wodnej – Państwowy Instytut Badawczy. Dane Instytutu Meteorologii i Gospodarki Wodnej – Państwowego Instytutu Badawczego zostały przetworzone.

Dane źródłowe można odnaleźć na stronie https://dane.imgw.pl